createdAt,value
2022-12-23T00:00:20.953Z,7.70
2022-12-23T00:05:43.337Z,7.70
2022-12-23T00:11:10.297Z,7.83
2022-12-23T00:16:36.403Z,6.50
2022-12-23T00:21:59.063Z,6.27
2022-12-23T00:27:21.248Z,6.70
2022-12-23T00:32:44.776Z,7.80
2022-12-23T00:38:07.219Z,7.37
2022-12-23T00:43:29.383Z,7.03
2022-12-23T00:49:27.055Z,7.87
2022-12-23T00:54:49.239Z,7.50
2022-12-23T01:00:12.130Z,8.10
2022-12-23T01:05:39.113Z,8.20
2022-12-23T01:11:07.103Z,8.77
2022-12-23T01:16:29.332Z,8.33
2022-12-23T01:21:52.014Z,7.50
2022-12-23T01:27:14.496Z,8.90
2022-12-23T01:32:37.278Z,7.30
2022-12-23T01:37:59.746Z,7.60
2022-12-23T01:43:22.799Z,7.80
2022-12-23T01:48:52.177Z,7.57
2022-12-23T01:54:14.795Z,7.40
2022-12-23T01:59:56.051Z,7.70
2022-12-23T02:05:18.954Z,6.10
2022-12-23T02:11:13.420Z,7.17
2022-12-23T02:16:46.051Z,7.10
2022-12-23T02:22:46.037Z,6.83
2022-12-23T02:28:53.384Z,6.90
2022-12-23T02:34:18.243Z,6.30
2022-12-23T02:39:46.107Z,7.13
2022-12-23T02:45:12.107Z,7.20
2022-12-23T02:50:38.251Z,6.30
2022-12-23T02:56:02.647Z,5.37
2022-12-23T03:01:27.557Z,6.00
2022-12-23T03:06:53.521Z,5.70
2022-12-23T03:12:28.549Z,5.33
2022-12-23T03:18:22.558Z,6.20
2022-12-23T03:23:55.890Z,5.83
2022-12-23T03:29:50.608Z,5.73
2022-12-23T03:35:17.868Z,7.50
2022-12-23T03:40:48.072Z,6.10
2022-12-23T03:46:18.198Z,6.67
2022-12-23T03:52:20.550Z,6.30
2022-12-23T03:57:55.117Z,6.13
2022-12-23T04:03:36.159Z,6.37
2022-12-23T04:08:59.332Z,7.27
2022-12-23T04:14:23.334Z,6.40
2022-12-23T04:19:46.543Z,8.40
2022-12-23T04:25:10.604Z,7.17
2022-12-23T04:30:34.614Z,6.83
2022-12-23T04:36:00.153Z,6.43
2022-12-23T04:41:24.246Z,6.90
2022-12-23T04:46:46.868Z,6.27
2022-12-23T04:52:09.797Z,6.87
2022-12-23T04:57:32.157Z,7.03
2022-12-23T05:02:54.805Z,7.33
2022-12-23T05:08:17.372Z,7.47
2022-12-23T05:13:39.798Z,6.97
2022-12-23T05:19:01.874Z,6.60
2022-12-23T05:24:24.425Z,7.53
2022-12-23T05:29:46.564Z,6.70
2022-12-23T05:35:09.311Z,7.33
2022-12-23T05:40:32.806Z,7.83
2022-12-23T05:45:56.087Z,7.00
2022-12-23T05:51:19.406Z,7.30
2022-12-23T05:56:41.811Z,7.73
2022-12-23T06:02:04.505Z,6.00
2022-12-23T06:07:26.941Z,5.67
2022-12-23T06:12:49.440Z,5.57
2022-12-23T06:18:11.780Z,5.57
2022-12-23T06:23:34.111Z,5.73
2022-12-23T06:28:56.556Z,5.90
2022-12-23T06:34:19.400Z,5.53
2022-12-23T06:39:43.168Z,5.47
2022-12-23T06:45:06.326Z,5.57
2022-12-23T06:50:28.704Z,6.07
2022-12-23T06:55:59.793Z,5.63
2022-12-23T07:01:22.365Z,5.83
2022-12-23T07:06:44.857Z,5.70
2022-12-23T07:12:07.360Z,5.13
2022-12-23T07:17:29.562Z,5.07
2022-12-23T07:22:54.740Z,5.13
2022-12-23T07:28:16.977Z,4.57
2022-12-23T07:33:39.357Z,7.50
2022-12-23T07:39:01.882Z,7.70
2022-12-23T07:44:26.388Z,7.73
2022-12-23T07:49:48.522Z,7.60
2022-12-23T07:55:10.804Z,9.50
2022-12-23T08:00:33.486Z,9.07
2022-12-23T08:06:12.746Z,9.47
2022-12-23T08:11:35.079Z,10.33
2022-12-23T08:16:57.620Z,10.10
2022-12-23T08:22:20.101Z,10.57
2022-12-23T08:27:42.385Z,10.17
2022-12-23T08:33:06.888Z,10.07
2022-12-23T08:38:29.209Z,10.60
2022-12-23T08:43:51.915Z,11.90
2022-12-23T08:49:14.272Z,11.63
2022-12-23T08:54:36.764Z,11.53
2022-12-23T08:59:59.421Z,12.83
2022-12-23T09:05:24.766Z,12.33
2022-12-23T09:10:47.319Z,12.23
2022-12-23T09:16:10.562Z,12.20
2022-12-23T09:21:32.955Z,12.53
2022-12-23T09:26:55.524Z,12.20
2022-12-23T09:32:18.454Z,11.10
2022-12-23T09:37:40.680Z,11.87
2022-12-23T09:43:21.776Z,10.53
2022-12-23T09:48:56.851Z,11.13
2022-12-23T09:54:29.410Z,10.40
2022-12-23T10:00:29.781Z,11.13
2022-12-23T10:05:57.462Z,10.20
2022-12-23T10:11:29.388Z,9.63
2022-12-23T10:16:57.936Z,9.63
2022-12-23T10:22:28.403Z,11.20
2022-12-23T10:27:50.507Z,9.47
2022-12-23T10:33:15.725Z,8.67
2022-12-23T10:39:06.147Z,10.13
2022-12-23T10:44:31.505Z,10.00
2022-12-23T10:49:53.899Z,11.03
2022-12-23T10:55:29.830Z,11.40
2022-12-23T11:01:00.177Z,11.33
2022-12-23T11:06:23.383Z,10.93
2022-12-23T11:11:58.317Z,12.10
2022-12-23T11:17:23.409Z,11.27
2022-12-23T11:22:55.060Z,9.10
2022-12-23T11:28:22.179Z,9.63
2022-12-23T11:34:03.601Z,7.73
2022-12-23T11:39:35.072Z,8.17
2022-12-23T11:45:00.016Z,8.23
2022-12-23T11:50:36.939Z,7.57
2022-12-23T11:56:07.680Z,6.47
2022-12-23T12:01:30.623Z,7.07
2022-12-23T12:06:56.834Z,8.10
2022-12-23T12:12:21.816Z,9.30
2022-12-23T12:17:49.891Z,8.63
2022-12-23T12:23:21.743Z,8.13
2022-12-23T12:28:47.136Z,7.93
2022-12-23T12:34:46.902Z,8.53
2022-12-23T12:40:28.177Z,8.80
2022-12-23T12:46:08.833Z,8.80
2022-12-23T12:51:43.060Z,8.70
2022-12-23T12:57:05.674Z,8.47
2022-12-23T13:02:37.491Z,8.07
2022-12-23T13:08:33.469Z,8.13
2022-12-23T13:14:18.947Z,8.00
2022-12-23T13:19:41.412Z,8.37
2022-12-23T13:25:12.271Z,7.03
2022-12-23T13:30:44.004Z,8.80
2022-12-23T13:36:34.746Z,8.53
2022-12-23T13:42:05.051Z,8.03
2022-12-23T13:47:46.716Z,8.47
2022-12-23T13:53:25.013Z,8.07
2022-12-23T13:58:49.913Z,8.53
2022-12-23T14:04:34.101Z,7.20
2022-12-23T14:09:59.253Z,7.93
2022-12-23T14:15:48.222Z,8.10
2022-12-23T14:21:32.358Z,6.77
2022-12-23T14:27:12.988Z,7.07
2022-12-23T14:32:46.383Z,6.67
2022-12-23T14:38:14.584Z,7.10
2022-12-23T14:43:47.330Z,7.40
2022-12-23T14:49:39.472Z,7.40
2022-12-23T14:55:32.383Z,8.40
2022-12-23T15:01:15.388Z,8.47
2022-12-23T15:06:44.250Z,7.63
2022-12-23T15:12:14.164Z,8.57
2022-12-23T15:17:37.063Z,8.57
2022-12-23T15:23:07.927Z,8.30
2022-12-23T15:28:41.325Z,7.87
2022-12-23T15:34:17.128Z,8.00
2022-12-23T15:39:43.841Z,8.10
2022-12-23T15:45:36.644Z,8.13
2022-12-23T15:51:25.730Z,8.33
2022-12-23T15:57:00.414Z,9.13
2022-12-23T16:08:16.430Z,8.30
2022-12-23T16:13:44.755Z,8.60
2022-12-23T16:19:47.914Z,7.23
2022-12-23T16:25:23.069Z,7.13
2022-12-23T16:30:49.541Z,7.80
2022-12-23T16:36:27.824Z,8.37
2022-12-23T16:41:50.657Z,8.60
2022-12-23T16:47:17.448Z,8.20
2022-12-23T16:52:40.025Z,8.87
2022-12-23T16:58:02.493Z,6.83
2022-12-23T17:03:25.234Z,7.87
2022-12-23T17:08:48.665Z,7.63
2022-12-23T17:14:16.553Z,10.13
2022-12-23T17:19:38.937Z,19.57
2022-12-23T17:25:01.361Z,10.67
2022-12-23T17:30:25.378Z,12.07
2022-12-23T17:35:48.148Z,13.10
2022-12-23T17:41:31.251Z,15.50
2022-12-23T17:46:53.489Z,14.30
2022-12-23T17:52:18.512Z,11.50
2022-12-23T17:57:40.800Z,11.10
2022-12-23T18:03:05.843Z,12.20
2022-12-23T18:08:28.300Z,10.37
2022-12-23T18:13:52.763Z,15.50
2022-12-23T18:19:20.643Z,14.03
2022-12-23T18:24:43.865Z,10.80
2022-12-23T18:30:06.724Z,13.00
2022-12-23T18:35:39.923Z,11.97
2022-12-23T18:41:02.610Z,11.03
2022-12-23T18:46:25.460Z,10.13
2022-12-23T18:51:48.229Z,11.73
2022-12-23T18:57:11.187Z,10.07
2022-12-23T19:02:33.984Z,9.83
2022-12-23T19:07:57.949Z,11.87
2022-12-23T19:13:20.637Z,14.77
2022-12-23T19:18:46.016Z,15.33
2022-12-23T19:24:08.964Z,13.87
2022-12-23T19:29:31.384Z,10.50
2022-12-23T19:34:53.924Z,8.77
2022-12-23T19:40:17.158Z,9.30
2022-12-23T19:45:39.934Z,9.17
2022-12-23T19:51:10.424Z,9.67
2022-12-23T19:56:35.520Z,10.17
2022-12-23T20:01:58.971Z,10.00
2022-12-23T20:07:22.055Z,10.63
2022-12-23T20:12:45.168Z,10.13
2022-12-23T20:18:07.852Z,9.97
2022-12-23T20:23:31.411Z,10.27
2022-12-23T20:28:53.837Z,9.73
2022-12-23T20:34:17.597Z,10.63
2022-12-23T20:39:40.453Z,9.37
2022-12-23T20:45:02.624Z,8.27
2022-12-23T20:50:25.016Z,9.47
2022-12-23T20:55:47.629Z,8.93
2022-12-23T21:01:12.526Z,8.37
2022-12-23T21:06:36.260Z,8.40
2022-12-23T21:11:58.958Z,7.47
2022-12-23T21:17:21.348Z,7.47
2022-12-23T21:22:45.955Z,7.53
2022-12-23T21:28:08.486Z,6.73
2022-12-23T21:33:31.142Z,6.43
2022-12-23T21:38:53.504Z,7.43
2022-12-23T21:44:16.074Z,6.27
2022-12-23T21:49:38.355Z,7.13
2022-12-23T21:55:00.825Z,5.83
2022-12-23T22:00:23.143Z,6.37
2022-12-23T22:05:45.515Z,6.93
2022-12-23T22:11:10.427Z,5.90
2022-12-23T22:16:34.852Z,6.40
2022-12-23T22:21:57.427Z,6.20
2022-12-23T22:27:19.981Z,5.40
2022-12-23T22:32:42.854Z,6.03
2022-12-23T22:38:05.296Z,5.63
2022-12-23T22:43:27.737Z,5.57
2022-12-23T22:48:50.800Z,6.00
2022-12-23T22:54:13.587Z,5.87
2022-12-23T22:59:35.916Z,6.03
2022-12-23T23:04:58.403Z,6.30
2022-12-23T23:10:20.638Z,5.57
2022-12-23T23:15:48.107Z,5.20
2022-12-23T23:21:12.479Z,5.80
2022-12-23T23:26:35.019Z,5.07
2022-12-23T23:31:57.563Z,5.90
2022-12-23T23:37:20.155Z,4.83
2022-12-23T23:42:42.465Z,5.43
2022-12-23T23:48:05.044Z,5.07
2022-12-23T23:53:27.142Z,5.47
2022-12-23T23:58:49.360Z,4.60
